Time,TemperatureF,DewpointF,PressureIn,WindDirection,WindDirectionDegrees,WindSpeedMPH,WindSpeedGustMPH,Humidity,HourlyPrecipIn,Conditions,Clouds,dailyrainin,SoftwareType,DateUTC
2013-01-23 00:00:00,36.4,35.4,29.97,SSW,209,2.0,2.0,96,0.00,,---,0.01,VWS V14.01,2013-01-23 08:00:00,
2013-01-23 00:05:00,36.4,35.4,29.97,SSW,209,3.0,5.0,96,0.00,,---,0.00,VWS V14.01,2013-01-23 08:05:00,
2013-01-23 00:10:00,36.4,35.6,29.98,SSW,200,4.0,4.0,97,0.00,,---,0.00,VWS V14.01,2013-01-23 08:10:00,
2013-01-23 00:15:00,36.4,35.6,29.98,SSW,200,1.0,3.0,97,0.00,,---,0.00,VWS V14.01,2013-01-23 08:15:00,
2013-01-23 00:21:00,36.5,35.7,29.98,SSW,200,0.0,1.0,97,0.00,,---,0.00,VWS V14.01,2013-01-23 08:21:00,
2013-01-23 00:27:00,36.4,35.6,29.98,WSW,240,0.0,3.0,97,0.00,,---,0.00,VWS V14.01,2013-01-23 08:27:00,
2013-01-23 00:32:00,36.3,35.5,29.99,WSW,240,0.0,0.0,97,0.00,,---,0.00,VWS V14.01,2013-01-23 08:32:00,
2013-01-23 00:37:00,36.3,35.5,29.99,WSW,240,0.0,0.0,97,0.00,,---,0.00,VWS V14.01,2013-01-23 08:37:00,
2013-01-23 00:43:00,36.5,35.7,29.99,WSW,240,1.0,2.0,97,0.00,,---,0.00,VWS V14.01,2013-01-23 08:43:00,
2013-01-23 00:48:00,36.6,35.8,29.98,WSW,240,1.0,1.0,97,0.00,,---,0.00,VWS V14.01,2013-01-23 08:48:00,
2013-01-23 00:53:00,36.7,35.9,29.98,WSW,240,0.0,0.0,97,0.00,,---,0.00,VWS V14.01,2013-01-23 08:53:00,
2013-01-23 00:58:00,36.7,35.9,29.98,WSW,240,1.0,2.0,97,0.00,,---,0.00,VWS V14.01,2013-01-23 08:58:00,
2013-01-23 01:03:00,36.7,35.7,29.98,ESE,102,5.0,5.0,96,0.00,,---,0.00,VWS V14.01,2013-01-23 09:03:00,
2013-01-23 01:08:00,36.7,35.7,29.98,ENE,76,3.0,4.0,96,0.00,,---,0.00,VWS V14.01,2013-01-23 09:08:00,
2013-01-23 01:13:00,36.7,35.4,29.98,ENE,73,5.0,6.0,95,0.00,,---,0.00,VWS V14.01,2013-01-23 09:13:00,
2013-01-23 01:18:00,36.9,35.1,29.98,East,82,3.0,4.0,93,0.00,,---,0.00,VWS V14.01,2013-01-23 09:18:00,
2013-01-23 01:23:00,37.1,34.4,29.97,ENE,63,7.0,8.0,90,0.00,,---,0.00,VWS V14.01,2013-01-23 09:23:00,
2013-01-23 01:28:00,37.7,34.2,29.98,East,100,4.0,11.0,87,0.00,,---,0.00,VWS V14.01,2013-01-23 09:28:00,
2013-01-23 01:33:00,38.4,34.0,29.97,ENE,65,7.0,10.0,84,0.00,,---,0.00,VWS V14.01,2013-01-23 09:33:00,
2013-01-23 01:38:00,38.7,34.3,29.97,East,80,1.0,3.0,84,0.00,,---,0.00,VWS V14.01,2013-01-23 09:38:00,
2013-01-23 01:43:00,38.7,34.0,29.97,East,84,3.0,4.0,83,0.00,,---,0.00,VWS V14.01,2013-01-23 09:43:00,
2013-01-23 01:48:00,38.7,34.0,29.97,ENE,66,10.0,10.0,83,0.00,,---,0.00,VWS V14.01,2013-01-23 09:48:00,
2013-01-23 01:53:00,38.8,33.2,29.97,East,80,3.0,5.0,80,0.00,,---,0.00,VWS V14.01,2013-01-23 09:53:00,
2013-01-23 01:58:00,38.9,34.2,29.98,SSW,194,1.0,3.0,83,0.00,,---,0.00,VWS V14.01,2013-01-23 09:58:00,
2013-01-23 02:03:00,38.6,35.1,29.97,WNW,298,5.0,5.0,87,0.00,,---,0.00,VWS V14.01,2013-01-23 10:03:00,
2013-01-23 02:08:00,37.7,35.0,29.99,WNW,283,6.0,9.0,90,0.00,,---,0.00,VWS V14.01,2013-01-23 10:08:00,
2013-01-23 02:13:00,37.2,35.1,30.00,South,179,1.0,7.0,92,0.00,,---,0.00,VWS V14.01,2013-01-23 10:13:00,
2013-01-23 02:18:00,37.0,34.9,30.00,SSW,205,2.0,3.0,92,0.00,,---,0.00,VWS V14.01,2013-01-23 10:18:00,
2013-01-23 02:23:00,36.9,34.8,29.99,NE,36,2.0,4.0,92,0.00,,---,0.00,VWS V14.01,2013-01-23 10:23:00,
2013-01-23 02:28:00,37.0,34.9,29.98,NNE,30,4.0,5.0,92,0.00,,---,0.00,VWS V14.01,2013-01-23 10:28:00,
2013-01-23 02:33:00,37.0,34.1,29.98,ENE,67,2.0,2.0,89,0.00,,---,0.00,VWS V14.01,2013-01-23 10:33:00,
2013-01-23 02:38:00,37.2,34.0,29.98,East,82,3.0,4.0,88,0.00,,---,0.00,VWS V14.01,2013-01-23 10:38:00,
2013-01-23 02:43:00,37.5,34.0,29.97,ENE,65,5.0,7.0,87,0.00,,---,0.00,VWS V14.01,2013-01-23 10:43:00,
2013-01-23 02:48:00,37.5,34.3,29.97,East,80,2.0,7.0,88,0.00,,---,0.00,VWS V14.01,2013-01-23 10:48:00,
2013-01-23 02:53:00,37.5,34.0,29.97,East,84,4.0,4.0,87,0.00,,---,0.00,VWS V14.01,2013-01-23 10:53:00,
2013-01-23 02:58:00,37.6,33.8,29.97,ENE,78,3.0,4.0,86,0.00,,---,0.00,VWS V14.01,2013-01-23 10:58:00,
2013-01-23 03:03:00,37.7,33.3,29.99,West,259,4.0,5.0,84,0.00,,---,0.00,VWS V14.01,2013-01-23 11:03:00,
2013-01-23 03:09:00,37.5,34.8,29.99,WNW,285,4.0,5.0,90,0.00,,---,0.00,VWS V14.01,2013-01-23 11:09:00,
2013-01-23 03:14:00,37.0,34.6,30.00,SSW,201,2.0,3.0,91,0.00,,---,0.00,VWS V14.01,2013-01-23 11:14:00,
2013-01-23 03:19:00,36.9,34.2,29.99,NW,323,2.0,3.0,90,0.00,,---,0.00,VWS V14.01,2013-01-23 11:19:00,
2013-01-23 03:24:00,37.0,34.6,30.01,South,184,3.0,3.0,91,0.00,,---,0.00,VWS V14.01,2013-01-23 11:24:00,
2013-01-23 03:29:00,37.0,34.3,30.01,South,178,1.0,2.0,90,0.00,,---,0.00,VWS V14.01,2013-01-23 11:29:00,
2013-01-23 03:35:00,37.0,34.3,30.01,South,178,0.0,0.0,90,0.00,,---,0.00,VWS V14.01,2013-01-23 11:35:00,
2013-01-23 03:40:00,37.0,34.6,30.01,South,178,0.0,0.0,91,0.00,,---,0.00,VWS V14.01,2013-01-23 11:40:00,
2013-01-23 03:45:00,37.1,34.7,29.99,NNE,30,3.0,5.0,91,0.00,,---,0.00,VWS V14.01,2013-01-23 11:45:00,
2013-01-23 03:50:00,37.1,34.7,29.99,NE,36,4.0,4.0,91,0.00,,---,0.00,VWS V14.01,2013-01-23 11:50:00,
2013-01-23 03:55:00,37.1,35.0,30.00,North,349,2.0,2.0,92,0.00,,---,0.00,VWS V14.01,2013-01-23 11:55:00,
2013-01-23 04:00:00,36.9,34.8,30.01,SSE,155,4.0,7.0,92,0.00,,---,0.00,VWS V14.01,2013-01-23 12:00:00,
2013-01-23 04:05:00,36.9,34.8,30.00,NE,53,3.0,3.0,92,0.00,,---,0.00,VWS V14.01,2013-01-23 12:05:00,
2013-01-23 04:10:00,37.0,34.6,30.00,NE,55,3.0,3.0,91,0.00,,---,0.00,VWS V14.01,2013-01-23 12:10:00,
2013-01-23 04:15:00,37.1,34.7,29.99,ENE,61,5.0,5.0,91,0.00,,---,0.00,VWS V14.01,2013-01-23 12:15:00,
2013-01-23 04:20:00,37.1,34.4,30.00,ESE,119,1.0,2.0,90,0.00,,---,0.00,VWS V14.01,2013-01-23 12:20:00,
2013-01-23 04:25:00,37.1,34.7,30.00,ESE,119,0.0,2.0,91,0.00,,---,0.00,VWS V14.01,2013-01-23 12:25:00,
2013-01-23 04:30:00,37.1,33.9,29.99,ENE,76,3.0,4.0,88,0.00,,---,0.00,VWS V14.01,2013-01-23 12:30:00,
2013-01-23 04:35:00,37.2,34.0,29.99,ENE,76,1.0,2.0,88,0.00,,---,0.00,VWS V14.01,2013-01-23 12:35:00,
2013-01-23 04:40:00,37.3,34.6,29.99,NE,53,3.0,5.0,90,0.00,,---,0.00,VWS V14.01,2013-01-23 12:40:00,
2013-01-23 04:45:00,37.3,34.4,30.00,East,79,0.0,0.0,89,0.00,,---,0.00,VWS V14.01,2013-01-23 12:45:00,
2013-01-23 04:50:00,37.2,34.5,29.99,East,79,3.0,4.0,90,0.00,,---,0.00,VWS V14.01,2013-01-23 12:50:00,
2013-01-23 04:55:00,37.1,33.6,29.99,East,79,0.0,1.0,87,0.00,,---,0.00,VWS V14.01,2013-01-23 12:55:00,
2013-01-23 05:00:00,37.5,32.2,29.99,East,98,4.0,4.0,81,0.00,,---,0.00,VWS V14.01,2013-01-23 13:00:00,
2013-01-23 05:05:00,38.1,32.8,29.99,NE,45,1.0,2.0,81,0.00,,---,0.00,VWS V14.01,2013-01-23 13:05:00,
2013-01-23 05:10:00,38.3,33.6,29.99,ENE,60,2.0,3.0,83,0.00,,---,0.00,VWS V14.01,2013-01-23 13:10:00,
2013-01-23 05:15:00,38.4,31.2,29.98,ENE,77,0.0,2.0,75,0.00,,---,0.00,VWS V14.01,2013-01-23 13:15:00,
2013-01-23 05:20:00,38.8,32.5,29.98,ENE,78,0.0,0.0,78,0.00,,---,0.00,VWS V14.01,2013-01-23 13:20:00,
2013-01-23 05:25:00,38.9,32.3,29.98,ENE,69,4.0,7.0,77,0.00,,---,0.00,VWS V14.01,2013-01-23 13:25:00,
2013-01-23 05:30:00,38.9,32.3,29.97,NE,47,6.0,7.0,77,0.00,,---,0.00,VWS V14.01,2013-01-23 13:30:00,
2013-01-23 05:35:00,38.8,32.9,29.95,ENE,64,6.0,7.0,79,0.00,,---,0.00,VWS V14.01,2013-01-23 13:35:00,
2013-01-23 05:40:00,38.5,32.2,29.95,ENE,58,8.0,10.0,78,0.00,,---,0.00,VWS V14.01,2013-01-23 13:40:00,
2013-01-23 05:45:00,38.3,32.0,29.94,ENE,66,5.0,8.0,78,0.00,,---,0.00,VWS V14.01,2013-01-23 13:45:00,
2013-01-23 05:50:00,38.3,32.0,29.95,ENE,60,6.0,6.0,78,0.00,,---,0.00,VWS V14.01,2013-01-23 13:50:00,
2013-01-23 05:55:00,38.3,31.7,29.95,North,360,3.0,4.0,77,0.00,,---,0.00,VWS V14.01,2013-01-23 13:55:00,
2013-01-23 06:00:00,38.1,32.5,29.95,WNW,292,1.0,3.0,80,0.00,,---,0.00,VWS V14.01,2013-01-23 14:00:00,
2013-01-23 06:05:00,37.9,32.6,29.95,WNW,292,1.0,1.0,81,0.00,,---,0.00,VWS V14.01,2013-01-23 14:05:00,
2013-01-23 06:10:00,37.7,31.5,29.94,ENE,63,4.0,6.0,78,0.00,,---,0.00,VWS V14.01,2013-01-23 14:10:00,
2013-01-23 06:15:00,37.8,31.9,29.95,SE,135,2.0,4.0,79,0.00,,---,0.00,VWS V14.01,2013-01-23 14:15:00,
2013-01-23 06:20:00,37.8,32.2,29.96,West,267,5.0,6.0,80,0.00,,---,0.00,VWS V14.01,2013-01-23 14:20:00,
2013-01-23 06:26:00,37.7,32.1,29.96,WSW,250,1.0,1.0,80,0.00,,---,0.00,VWS V14.01,2013-01-23 14:26:00,
2013-01-23 06:31:00,38.0,32.4,29.95,NE,53,3.0,4.0,80,0.00,,---,0.00,VWS V14.01,2013-01-23 14:31:00,
2013-01-23 06:36:00,38.3,32.4,29.95,East,82,0.0,0.0,79,0.00,,---,0.00,VWS V14.01,2013-01-23 14:36:00,
2013-01-23 06:41:00,38.4,33.1,29.96,ESE,109,2.0,2.0,81,0.00,,---,0.00,VWS V14.01,2013-01-23 14:41:00,
2013-01-23 06:46:00,38.3,33.0,29.96,ESE,109,1.0,4.0,81,0.00,,---,0.00,VWS V14.01,2013-01-23 14:46:00,
2013-01-23 06:51:00,38.2,32.3,29.95,SSE,167,4.0,4.0,79,0.00,,---,0.00,VWS V14.01,2013-01-23 14:51:00,
2013-01-23 06:56:00,38.5,31.9,29.95,SW,221,2.0,4.0,77,0.00,,---,0.00,VWS V14.01,2013-01-23 14:56:00,
2013-01-23 07:01:00,38.6,33.0,29.93,NNW,328,1.0,4.0,80,0.00,,---,0.00,VWS V14.01,2013-01-23 15:01:00,
2013-01-23 07:06:00,38.4,32.2,29.93,ENE,78,5.0,6.0,78,0.00,,---,0.00,VWS V14.01,2013-01-23 15:06:00,
2013-01-23 07:11:00,38.6,32.3,29.93,ENE,75,6.0,8.0,78,0.00,,---,0.00,VWS V14.01,2013-01-23 15:11:00,
2013-01-23 07:16:00,38.7,31.8,29.93,ENE,78,0.0,3.0,76,0.00,,---,0.00,VWS V14.01,2013-01-23 15:16:00,
2013-01-23 07:21:00,38.7,33.1,29.94,SSW,196,5.0,6.0,80,0.00,,---,0.00,VWS V14.01,2013-01-23 15:21:00,
2013-01-23 07:26:00,38.4,32.2,29.95,SE,140,1.0,4.0,78,0.00,,---,0.00,VWS V14.01,2013-01-23 15:26:00,
2013-01-23 07:31:00,38.7,32.1,29.93,ENE,62,5.0,6.0,77,0.00,,---,0.00,VWS V14.01,2013-01-23 15:31:00,
2013-01-23 07:36:00,38.9,32.3,29.93,NE,47,4.0,5.0,77,0.00,,---,0.00,VWS V14.01,2013-01-23 15:36:00,
2013-01-23 07:41:00,38.9,32.0,29.93,ENE,63,6.0,8.0,76,0.00,,---,0.00,VWS V14.01,2013-01-23 15:41:00,
2013-01-23 07:46:00,38.8,31.9,29.93,ENE,63,3.0,5.0,76,0.00,,---,0.00,VWS V14.01,2013-01-23 15:46:00,
2013-01-23 07:51:00,38.7,32.1,29.93,North,5,3.0,4.0,77,0.00,,---,0.00,VWS V14.01,2013-01-23 15:51:00,
2013-01-23 07:56:00,38.4,33.1,29.94,West,281,0.0,2.0,81,0.00,,---,0.00,VWS V14.01,2013-01-23 15:56:00,
2013-01-23 08:01:00,38.0,32.1,29.94,NE,47,4.0,5.0,79,0.00,,---,0.00,VWS V14.01,2013-01-23 16:01:00,
2013-01-23 08:06:00,38.0,31.1,29.93,NNE,18,2.0,4.0,76,0.00,,---,0.00,VWS V14.01,2013-01-23 16:06:00,
2013-01-23 08:11:00,38.3,30.4,29.93,ENE,58,5.0,7.0,73,0.00,,---,0.00,VWS V14.01,2013-01-23 16:11:00,
2013-01-23 08:16:00,38.7,30.5,29.94,South,188,5.0,6.0,72,0.00,,---,0.00,VWS V14.01,2013-01-23 16:16:00,
2013-01-23 08:21:00,38.9,32.3,29.93,ENE,69,3.0,3.0,77,0.00,,---,0.00,VWS V14.01,2013-01-23 16:21:00,
2013-01-23 08:26:00,38.8,31.9,29.92,NNE,33,0.0,2.0,76,0.00,,---,0.00,VWS V14.01,2013-01-23 16:26:00,
2013-01-23 08:31:00,38.8,32.9,29.92,South,176,4.0,4.0,79,0.00,,---,0.00,VWS V14.01,2013-01-23 16:31:00,
2013-01-23 08:37:00,38.8,31.6,29.92,ENE,71,5.0,5.0,75,0.00,,---,0.00,VWS V14.01,2013-01-23 16:37:00,
2013-01-23 08:42:00,38.9,30.3,29.92,East,80,2.0,4.0,71,0.00,,---,0.00,VWS V14.01,2013-01-23 16:42:00,
2013-01-23 08:47:00,39.2,30.2,29.92,SE,139,4.0,4.0,70,0.00,,---,0.00,VWS V14.01,2013-01-23 16:47:00,
2013-01-23 08:52:00,39.3,30.4,29.92,East,97,2.0,4.0,70,0.00,,---,0.00,VWS V14.01,2013-01-23 16:52:00,
2013-01-23 08:57:00,39.4,31.8,29.92,SSW,194,0.0,1.0,74,0.00,,---,0.00,VWS V14.01,2013-01-23 16:57:00,
2013-01-23 09:02:00,39.4,31.8,29.93,SSW,194,1.0,2.0,74,0.00,,---,0.00,VWS V14.01,2013-01-23 17:02:00,
2013-01-23 09:07:00,39.3,32.0,29.93,NNE,17,2.0,2.0,75,0.00,,---,0.00,VWS V14.01,2013-01-23 17:07:00,
2013-01-23 09:12:00,39.3,32.0,29.92,NE,44,3.0,5.0,75,0.00,,---,0.00,VWS V14.01,2013-01-23 17:12:00,
2013-01-23 09:17:00,39.4,30.8,29.93,ENE,65,4.0,4.0,71,0.00,,---,0.00,VWS V14.01,2013-01-23 17:17:00,
2013-01-23 09:22:00,39.6,30.6,29.92,NNE,17,4.0,5.0,70,0.00,,---,0.00,VWS V14.01,2013-01-23 17:22:00,
2013-01-23 09:27:00,39.7,30.4,29.93,SSW,205,8.0,8.0,69,0.00,,---,0.00,VWS V14.01,2013-01-23 17:27:00,
2013-01-23 09:32:00,39.7,31.8,29.93,SSW,194,0.0,1.0,73,0.00,,---,0.00,VWS V14.01,2013-01-23 17:32:00,
2013-01-23 09:37:00,39.7,31.8,29.93,SSW,194,0.0,0.0,73,0.00,,---,0.00,VWS V14.01,2013-01-23 17:37:00,
2013-01-23 09:43:00,39.8,31.9,29.94,SSW,194,0.0,0.0,73,0.00,,---,0.00,VWS V14.01,2013-01-23 17:43:00,
2013-01-23 09:48:00,39.9,32.3,29.93,ENE,57,2.0,2.0,74,0.00,,---,0.00,VWS V14.01,2013-01-23 17:48:00,
2013-01-23 09:53:00,40.0,32.1,29.94,ESE,117,1.0,4.0,73,0.00,,---,0.00,VWS V14.01,2013-01-23 17:53:00,
2013-01-23 09:58:00,40.2,31.2,29.94,SE,140,0.0,1.0,70,0.00,,---,0.00,VWS V14.01,2013-01-23 17:58:00,
2013-01-23 10:03:00,40.4,33.1,29.93,SE,140,1.0,2.0,75,0.00,,---,0.00,VWS V14.01,2013-01-23 18:03:00,
2013-01-23 10:08:00,40.6,32.3,29.93,SSE,167,5.0,5.0,72,0.00,,---,0.00,VWS V14.01,2013-01-23 18:08:00,
2013-01-23 10:13:00,41.1,31.7,29.93,South,179,1.0,4.0,69,0.00,,---,0.00,VWS V14.01,2013-01-23 18:13:00,
2013-01-23 10:18:00,41.6,32.6,29.93,South,179,2.0,2.0,70,0.00,,---,0.00,VWS V14.01,2013-01-23 18:18:00,
2013-01-23 10:23:00,41.9,32.1,29.93,South,179,1.0,2.0,68,0.00,,---,0.00,VWS V14.01,2013-01-23 18:23:00,
2013-01-23 10:28:00,42.2,35.2,29.94,South,179,2.0,2.0,76,0.00,,---,0.00,VWS V14.01,2013-01-23 18:28:00,
2013-01-23 10:33:00,42.0,34.3,29.94,ENE,72,4.0,5.0,74,0.00,,---,0.00,VWS V14.01,2013-01-23 18:33:00,
2013-01-23 10:38:00,41.8,33.5,29.94,East,86,2.0,3.0,72,0.00,,---,0.00,VWS V14.01,2013-01-23 18:38:00,
2013-01-23 10:43:00,41.8,33.5,29.94,ENE,64,2.0,4.0,72,0.00,,---,0.00,VWS V14.01,2013-01-23 18:43:00,
2013-01-23 10:48:00,41.9,33.5,29.94,ENE,65,4.0,5.0,72,0.00,,---,0.00,VWS V14.01,2013-01-23 18:48:00,
2013-01-23 10:53:00,42.0,32.2,29.94,NE,48,3.0,6.0,68,0.00,,---,0.00,VWS V14.01,2013-01-23 18:53:00,
2013-01-23 10:58:00,42.3,31.4,29.93,ENE,69,4.0,6.0,65,0.00,,---,0.00,VWS V14.01,2013-01-23 18:58:00,
2013-01-23 11:03:00,42.4,31.9,29.93,ENE,63,3.0,5.0,66,0.00,,---,0.00,VWS V14.01,2013-01-23 19:03:00,
2013-01-23 11:08:00,42.4,31.9,29.94,ENE,71,0.0,0.0,66,0.00,,---,0.00,VWS V14.01,2013-01-23 19:08:00,
2013-01-23 11:13:00,42.5,32.7,29.94,ENE,71,1.0,1.0,68,0.00,,---,0.00,VWS V14.01,2013-01-23 19:13:00,
2013-01-23 11:18:00,42.5,32.7,29.94,ENE,71,0.0,0.0,68,0.00,,---,0.00,VWS V14.01,2013-01-23 19:18:00,
2013-01-23 11:23:00,42.5,32.7,29.94,ENE,71,0.0,0.0,68,0.00,,---,0.00,VWS V14.01,2013-01-23 19:23:00,
2013-01-23 11:28:00,42.5,32.7,29.94,ENE,71,0.0,0.0,68,0.00,,---,0.00,VWS V14.01,2013-01-23 19:28:00,
2013-01-23 11:33:00,42.6,33.2,29.94,ENE,71,0.0,0.0,69,0.00,,---,0.00,VWS V14.01,2013-01-23 19:33:00,
2013-01-23 11:38:00,42.7,33.6,29.94,ENE,73,0.0,1.0,70,0.00,,---,0.00,VWS V14.01,2013-01-23 19:38:00,
2013-01-23 11:43:00,42.8,34.8,29.93,ENE,73,0.0,0.0,73,0.00,,---,0.00,VWS V14.01,2013-01-23 19:43:00,
2013-01-23 11:49:00,42.9,35.5,29.93,ENE,73,0.0,0.0,75,0.00,,---,0.00,VWS V14.01,2013-01-23 19:49:00,
2013-01-23 11:54:00,43.0,35.3,29.92,ENE,73,2.0,2.0,74,0.00,,---,0.00,VWS V14.01,2013-01-23 19:54:00,
2013-01-23 11:59:00,43.0,35.0,29.92,ENE,73,3.0,3.0,73,0.00,,---,0.00,VWS V14.01,2013-01-23 19:59:00,
2013-01-23 12:04:00,43.0,35.0,29.92,ENE,61,3.0,5.0,73,0.00,,---,0.00,VWS V14.01,2013-01-23 20:04:00,
2013-01-23 12:09:00,42.9,34.5,29.91,ENE,77,4.0,5.0,72,0.00,,---,0.00,VWS V14.01,2013-01-23 20:09:00,
2013-01-23 12:14:00,42.9,34.5,29.91,ENE,74,1.0,4.0,72,0.00,,---,0.00,VWS V14.01,2013-01-23 20:14:00,
2013-01-23 12:19:00,42.9,34.5,29.91,East,80,2.0,3.0,72,0.00,,---,0.00,VWS V14.01,2013-01-23 20:19:00,
2013-01-23 12:24:00,43.0,35.0,29.91,East,80,0.0,2.0,73,0.00,,---,0.00,VWS V14.01,2013-01-23 20:24:00,
2013-01-23 12:30:00,43.1,34.7,29.91,East,80,2.0,2.0,72,0.00,,---,0.00,VWS V14.01,2013-01-23 20:30:00,
2013-01-23 12:35:00,43.3,34.5,29.91,East,80,2.0,2.0,71,0.00,,---,0.00,VWS V14.01,2013-01-23 20:35:00,
2013-01-23 12:40:00,43.4,35.0,29.90,East,80,0.0,0.0,72,0.00,,---,0.00,VWS V14.01,2013-01-23 20:40:00,
2013-01-23 12:45:00,43.5,37.1,29.90,East,80,3.0,3.0,78,0.00,,---,0.00,VWS V14.01,2013-01-23 20:45:00,
2013-01-23 12:50:00,43.5,37.1,29.90,East,80,2.0,2.0,78,0.00,,---,0.00,VWS V14.01,2013-01-23 20:50:00,
2013-01-23 12:55:00,43.3,35.2,29.90,ENE,71,3.0,5.0,73,0.00,,---,0.00,VWS V14.01,2013-01-23 20:55:00,
2013-01-23 13:00:00,43.1,34.7,29.90,South,186,3.0,5.0,72,0.00,,---,0.00,VWS V14.01,2013-01-23 21:00:00,
2013-01-23 13:06:00,42.9,36.8,29.90,South,189,0.0,0.0,79,0.00,,---,0.00,VWS V14.01,2013-01-23 21:06:00,
2013-01-23 13:11:00,42.8,37.1,29.90,South,189,0.0,0.0,80,0.00,,---,0.00,VWS V14.01,2013-01-23 21:11:00,
2013-01-23 13:16:00,42.7,37.3,29.89,South,189,1.0,1.0,81,0.00,,---,0.00,VWS V14.01,2013-01-23 21:16:00,
2013-01-23 13:21:00,42.6,37.8,29.89,South,189,0.0,1.0,83,0.00,,---,0.00,VWS V14.01,2013-01-23 21:21:00,
2013-01-23 13:26:00,42.5,38.0,29.89,South,189,1.0,2.0,84,0.00,,---,0.00,VWS V14.01,2013-01-23 21:26:00,
2013-01-23 13:31:00,42.4,37.9,29.90,South,189,0.0,0.0,84,0.00,,---,0.00,VWS V14.01,2013-01-23 21:31:00,
2013-01-23 13:36:00,42.3,37.2,29.90,South,189,0.0,0.0,82,0.00,,---,0.00,VWS V14.01,2013-01-23 21:36:00,
2013-01-23 13:41:00,42.3,37.2,29.89,South,189,0.0,2.0,82,0.00,,---,0.00,VWS V14.01,2013-01-23 21:41:00,
2013-01-23 13:46:00,42.3,36.9,29.89,SSE,155,1.0,4.0,81,0.00,,---,0.00,VWS V14.01,2013-01-23 21:46:00,
2013-01-23 13:51:00,42.3,37.5,29.89,ESE,110,0.0,2.0,83,0.01,,---,0.01,VWS V14.01,2013-01-23 21:51:00,
2013-01-23 13:56:00,42.3,37.5,29.89,ESE,123,5.0,6.0,83,0.01,,---,0.01,VWS V14.01,2013-01-23 21:56:00,
2013-01-23 14:01:00,42.3,37.5,29.89,SE,127,2.0,4.0,83,0.01,,---,0.01,VWS V14.01,2013-01-23 22:01:00,
2013-01-23 14:06:00,42.3,37.8,29.89,SSE,153,1.0,2.0,84,0.01,,---,0.01,VWS V14.01,2013-01-23 22:06:00,
2013-01-23 14:11:00,42.4,37.6,29.89,SE,144,2.0,5.0,83,0.01,,---,0.01,VWS V14.01,2013-01-23 22:11:00,
2013-01-23 14:16:00,42.4,37.6,29.90,ESE,121,1.0,1.0,83,0.01,,---,0.01,VWS V14.01,2013-01-23 22:16:00,
2013-01-23 14:21:00,42.5,38.3,29.90,ESE,121,2.0,4.0,85,0.01,,---,0.01,VWS V14.01,2013-01-23 22:21:00,
2013-01-23 14:26:00,42.4,38.2,29.90,ESE,120,0.0,0.0,85,0.01,,---,0.01,VWS V14.01,2013-01-23 22:26:00,
2013-01-23 14:31:00,42.3,38.1,29.91,ESE,120,0.0,2.0,85,0.01,,---,0.01,VWS V14.01,2013-01-23 22:31:00,
2013-01-23 14:36:00,42.2,38.0,29.91,ESE,120,0.0,0.0,85,0.02,,---,0.02,VWS V14.01,2013-01-23 22:36:00,
2013-01-23 14:42:00,42.1,38.8,29.91,ESE,121,1.0,1.0,88,0.02,,---,0.02,VWS V14.01,2013-01-23 22:42:00,
2013-01-23 14:47:00,42.0,39.0,29.91,ESE,121,0.0,0.0,89,0.03,,---,0.03,VWS V14.01,2013-01-23 22:47:00,
2013-01-23 14:52:00,41.9,39.2,29.92,ESE,118,1.0,1.0,90,0.02,,---,0.03,VWS V14.01,2013-01-23 22:52:00,
2013-01-23 14:57:00,41.7,39.3,29.92,SSE,157,0.0,1.0,91,0.02,,---,0.03,VWS V14.01,2013-01-23 22:57:00,
2013-01-23 15:02:00,41.6,39.2,29.92,SE,126,2.0,2.0,91,0.02,,---,0.03,VWS V14.01,2013-01-23 23:02:00,
2013-01-23 15:07:00,41.3,38.6,29.92,ESE,115,2.0,4.0,90,0.03,,---,0.04,VWS V14.01,2013-01-23 23:07:00,
2013-01-23 15:12:00,41.1,38.4,29.93,ESE,116,1.0,4.0,90,0.03,,---,0.04,VWS V14.01,2013-01-23 23:12:00,
2013-01-23 15:17:00,41.0,38.9,29.93,ESE,116,0.0,0.0,92,0.03,,---,0.04,VWS V14.01,2013-01-23 23:17:00,
2013-01-23 15:22:00,40.8,38.9,29.93,ESE,116,0.0,2.0,93,0.04,,---,0.05,VWS V14.01,2013-01-23 23:22:00,
2013-01-23 15:27:00,40.6,38.7,29.94,ESE,116,0.0,1.0,93,0.04,,---,0.05,VWS V14.01,2013-01-23 23:27:00,
2013-01-23 15:32:00,40.5,38.6,29.93,ESE,116,0.0,0.0,93,0.05,,---,0.06,VWS V14.01,2013-01-23 23:32:00,
2013-01-23 15:37:00,40.4,38.5,29.94,ESE,116,0.0,0.0,93,0.04,,---,0.06,VWS V14.01,2013-01-23 23:37:00,
2013-01-23 15:42:00,40.3,38.7,29.94,ESE,116,0.0,0.0,94,0.04,,---,0.06,VWS V14.01,2013-01-23 23:42:00,
2013-01-23 15:47:00,40.2,38.6,29.95,ESE,116,0.0,0.0,94,0.05,,---,0.07,VWS V14.01,2013-01-23 23:47:00,
2013-01-23 15:52:00,40.1,38.5,29.95,ESE,116,0.0,0.0,94,0.05,,---,0.08,VWS V14.01,2013-01-23 23:52:00,
2013-01-23 15:57:00,40.0,38.4,29.95,ENE,57,0.0,4.0,94,0.05,,---,0.08,VWS V14.01,2013-01-23 23:57:00,
2013-01-23 16:02:00,40.0,38.7,29.95,ENE,57,3.0,3.0,95,0.06,,---,0.09,VWS V14.01,2013-01-24 00:02:00,
2013-01-23 16:07:00,40.0,38.4,29.96,ENE,69,0.0,1.0,94,0.05,,---,0.09,VWS V14.01,2013-01-24 00:07:00,
2013-01-23 16:12:00,39.8,38.2,29.96,ENE,69,0.0,0.0,94,0.06,,---,0.10,VWS V14.01,2013-01-24 00:12:00,
2013-01-23 16:17:00,39.8,38.5,29.96,ENE,69,0.0,0.0,95,0.06,,---,0.10,VWS V14.01,2013-01-24 00:17:00,
2013-01-23 16:22:00,39.7,38.4,29.96,ESE,107,2.0,2.0,95,0.06,,---,0.11,VWS V14.01,2013-01-24 00:22:00,
2013-01-23 16:27:00,39.6,38.3,29.96,ESE,106,4.0,4.0,95,0.06,,---,0.11,VWS V14.01,2013-01-24 00:27:00,
2013-01-23 16:32:00,39.7,38.7,29.96,ENE,74,0.0,2.0,96,0.06,,---,0.11,VWS V14.01,2013-01-24 00:32:00,
2013-01-23 16:37:00,39.8,38.8,29.97,ENE,74,0.0,1.0,96,0.05,,---,0.11,VWS V14.01,2013-01-24 00:37:00,
2013-01-23 16:42:00,40.0,39.0,29.97,South,182,0.0,1.0,96,0.06,,---,0.12,VWS V14.01,2013-01-24 00:42:00,
2013-01-23 16:47:00,40.2,39.2,29.97,SSE,149,4.0,6.0,96,0.05,,---,0.12,VWS V14.01,2013-01-24 00:47:00,
2013-01-23 16:52:00,40.6,39.5,29.97,South,187,3.0,6.0,96,0.06,,---,0.13,VWS V14.01,2013-01-24 00:52:00,
2013-01-23 16:57:00,40.9,39.8,29.97,South,178,1.0,5.0,96,0.05,,---,0.13,VWS V14.01,2013-01-24 00:57:00,
2013-01-23 17:02:00,41.0,40.0,29.97,SSE,158,1.0,2.0,96,0.04,,---,0.13,VWS V14.01,2013-01-24 01:02:00,
2013-01-23 17:07:00,41.2,40.2,29.98,SSW,199,6.0,10.0,96,0.04,,---,0.13,VWS V14.01,2013-01-24 01:07:00,
2013-01-23 17:12:00,41.5,40.2,29.98,SSW,207,3.0,7.0,95,0.03,,---,0.13,VWS V14.01,2013-01-24 01:12:00,
2013-01-23 17:17:00,41.6,40.3,29.98,SSW,207,4.0,5.0,95,0.04,,---,0.14,VWS V14.01,2013-01-24 01:17:00,
2013-01-23 17:22:00,41.8,40.5,29.98,South,182,5.0,10.0,95,0.03,,---,0.14,VWS V14.01,2013-01-24 01:22:00,
2013-01-23 17:27:00,41.9,40.6,29.98,SSW,194,10.0,12.0,95,0.03,,---,0.14,VWS V14.01,2013-01-24 01:27:00,
2013-01-23 17:32:00,42.0,40.7,29.98,South,183,9.0,13.0,95,0.03,,---,0.14,VWS V14.01,2013-01-24 01:32:00,
2013-01-23 17:37:00,42.0,40.4,29.98,SSE,150,8.0,9.0,94,0.03,,---,0.14,VWS V14.01,2013-01-24 01:37:00,
2013-01-23 17:42:00,42.0,40.4,29.99,SSW,213,7.0,11.0,94,0.02,,---,0.14,VWS V14.01,2013-01-24 01:42:00,
2013-01-23 17:47:00,42.0,40.4,29.99,South,186,3.0,4.0,94,0.02,,---,0.14,VWS V14.01,2013-01-24 01:47:00,
2013-01-23 17:52:00,42.0,40.4,29.99,SSW,207,4.0,4.0,94,0.02,,---,0.14,VWS V14.01,2013-01-24 01:52:00,
2013-01-23 17:57:00,42.0,40.7,29.99,SW,233,11.0,12.0,95,0.02,,---,0.15,VWS V14.01,2013-01-24 01:57:00,
2013-01-23 18:02:00,41.9,40.6,29.99,SSW,213,8.0,10.0,95,0.02,,---,0.15,VWS V14.01,2013-01-24 02:02:00,
2013-01-23 18:07:00,41.9,40.6,30.00,SSW,206,7.0,7.0,95,0.02,,---,0.15,VWS V14.01,2013-01-24 02:07:00,
2013-01-23 18:12:00,41.9,40.6,30.00,SSW,200,2.0,5.0,95,0.02,,---,0.15,VWS V14.01,2013-01-24 02:12:00,
2013-01-23 18:17:00,41.8,40.5,30.00,SSW,198,9.0,9.0,95,0.01,,---,0.15,VWS V14.01,2013-01-24 02:17:00,
2013-01-23 18:22:00,41.8,40.5,30.00,SW,215,4.0,8.0,95,0.01,,---,0.15,VWS V14.01,2013-01-24 02:22:00,
2013-01-23 18:27:00,41.9,40.6,30.00,South,173,1.0,5.0,95,0.01,,---,0.15,VWS V14.01,2013-01-24 02:27:00,
2013-01-23 18:32:00,41.9,40.6,30.00,SW,225,3.0,7.0,95,0.01,,---,0.15,VWS V14.01,2013-01-24 02:32:00,
2013-01-23 18:37:00,41.9,40.6,30.01,SSW,196,3.0,6.0,95,0.01,,---,0.15,VWS V14.01,2013-01-24 02:37:00,
2013-01-23 18:42:00,41.9,40.6,30.01,SSW,193,4.0,6.0,95,0.01,,---,0.15,VWS V14.01,2013-01-24 02:42:00,
2013-01-23 18:47:00,41.9,40.6,30.02,SSW,206,5.0,5.0,95,0.01,,---,0.15,VWS V14.01,2013-01-24 02:47:00,
2013-01-23 18:52:00,41.9,40.6,30.02,SSW,210,6.0,10.0,95,0.01,,---,0.15,VWS V14.01,2013-01-24 02:52:00,
2013-01-23 18:57:00,41.9,40.6,30.02,SSW,192,7.0,7.0,95,0.01,,---,0.15,VWS V14.01,2013-01-24 02:57:00,
2013-01-23 19:02:00,41.9,40.6,30.02,SSW,204,6.0,9.0,95,0.00,,---,0.15,VWS V14.01,2013-01-24 03:02:00,
2013-01-23 19:07:00,41.9,40.6,30.03,SSW,211,3.0,8.0,95,0.00,,---,0.15,VWS V14.01,2013-01-24 03:07:00,
2013-01-23 19:12:00,41.9,40.6,30.03,SSW,192,8.0,11.0,95,0.00,,---,0.15,VWS V14.01,2013-01-24 03:12:00,
2013-01-23 19:17:00,41.9,40.6,30.03,SSW,197,8.0,10.0,95,0.00,,---,0.15,VWS V14.01,2013-01-24 03:17:00,
2013-01-23 19:23:00,42.0,40.7,30.03,SSW,200,8.0,16.0,95,0.00,,---,0.15,VWS V14.01,2013-01-24 03:23:00,
2013-01-23 19:28:00,42.1,40.5,30.04,South,180,8.0,12.0,94,0.00,,---,0.15,VWS V14.01,2013-01-24 03:28:00,
2013-01-23 19:33:00,42.1,40.5,30.04,SW,222,7.0,11.0,94,0.00,,---,0.15,VWS V14.01,2013-01-24 03:33:00,
2013-01-23 19:38:00,42.1,40.5,30.04,SSW,202,6.0,10.0,94,0.00,,---,0.15,VWS V14.01,2013-01-24 03:38:00,
2013-01-23 19:43:00,42.1,40.5,30.05,SSW,203,10.0,13.0,94,0.00,,---,0.15,VWS V14.01,2013-01-24 03:43:00,
2013-01-23 19:48:00,42.2,40.6,30.05,South,173,5.0,7.0,94,0.00,,---,0.15,VWS V14.01,2013-01-24 03:48:00,
2013-01-23 19:53:00,42.2,40.6,30.05,SSW,196,5.0,11.0,94,0.00,,---,0.15,VWS V14.01,2013-01-24 03:53:00,
2013-01-23 19:58:00,42.2,40.6,30.06,SSW,200,3.0,7.0,94,0.00,,---,0.15,VWS V14.01,2013-01-24 03:58:00,
2013-01-23 20:03:00,42.2,40.6,30.06,SSW,192,10.0,11.0,94,0.00,,---,0.15,VWS V14.01,2013-01-24 04:03:00,
2013-01-23 20:08:00,42.2,40.6,30.07,SSW,202,4.0,8.0,94,0.00,,---,0.15,VWS V14.01,2013-01-24 04:08:00,
2013-01-23 20:13:00,42.2,40.6,30.07,SW,217,9.0,10.0,94,0.00,,---,0.15,VWS V14.01,2013-01-24 04:13:00,
2013-01-23 20:18:00,42.2,40.6,30.07,SW,215,5.0,8.0,94,0.00,,---,0.15,VWS V14.01,2013-01-24 04:18:00,
2013-01-23 20:23:00,42.1,40.5,30.08,SSW,205,6.0,8.0,94,0.00,,---,0.15,VWS V14.01,2013-01-24 04:23:00,
2013-01-23 20:28:00,42.1,40.5,30.08,SSW,194,4.0,6.0,94,0.00,,---,0.15,VWS V14.01,2013-01-24 04:28:00,
2013-01-23 20:33:00,42.1,40.5,30.09,SSW,200,8.0,10.0,94,0.01,,---,0.16,VWS V14.01,2013-01-24 04:33:00,
2013-01-23 20:38:00,42.1,40.5,30.09,South,190,2.0,6.0,94,0.01,,---,0.16,VWS V14.01,2013-01-24 04:38:00,
2013-01-23 20:43:00,42.1,40.5,30.09,South,176,6.0,6.0,94,0.01,,---,0.16,VWS V14.01,2013-01-24 04:43:00,
2013-01-23 20:48:00,42.1,40.5,30.10,SSE,166,6.0,6.0,94,0.01,,---,0.16,VWS V14.01,2013-01-24 04:48:00,
2013-01-23 20:53:00,42.1,40.5,30.10,SE,144,4.0,7.0,94,0.01,,---,0.16,VWS V14.01,2013-01-24 04:53:00,
2013-01-23 20:58:00,42.1,40.5,30.10,South,178,1.0,3.0,94,0.01,,---,0.16,VWS V14.01,2013-01-24 04:58:00,
2013-01-23 21:01:00,42.1,40.5,30.10,SSW,208,1.0,5.0,94,0.01,,---,0.16,VWS V14.01,2013-01-24 05:01:00,
2013-01-23 21:02:00,42.1,40.5,30.10,SSW,210,2.0,4.0,94,0.01,,---,0.16,VWS V14.01,2013-01-24 05:02:00,
2013-01-23 21:03:00,42.1,40.5,30.10,South,185,2.0,3.0,94,0.01,,---,0.16,VWS V14.01,2013-01-24 05:03:00,
2013-01-23 21:08:00,42.1,40.5,30.11,SSW,211,0.0,5.0,94,0.01,,---,0.16,VWS V14.01,2013-01-24 05:08:00,
2013-01-23 21:13:00,42.1,40.5,30.11,SSW,194,3.0,8.0,94,0.01,,---,0.16,VWS V14.01,2013-01-24 05:13:00,
2013-01-23 21:18:00,42.2,40.6,30.11,SSW,194,6.0,6.0,94,0.01,,---,0.16,VWS V14.01,2013-01-24 05:18:00,
2013-01-23 21:23:00,42.1,40.5,30.11,WSW,240,4.0,10.0,94,0.01,,---,0.16,VWS V14.01,2013-01-24 05:23:00,
2013-01-23 21:28:00,42.2,40.6,30.11,SSW,198,6.0,10.0,94,0.01,,---,0.16,VWS V14.01,2013-01-24 05:28:00,
2013-01-23 21:33:00,42.2,40.6,30.12,SSW,212,11.0,12.0,94,0.00,,---,0.16,VWS V14.01,2013-01-24 05:33:00,
2013-01-23 21:38:00,42.2,40.6,30.12,SSW,211,7.0,15.0,94,0.00,,---,0.16,VWS V14.01,2013-01-24 05:38:00,
2013-01-23 21:43:00,42.2,40.6,30.12,SSW,210,7.0,11.0,94,0.00,,---,0.16,VWS V14.01,2013-01-24 05:43:00,
2013-01-23 21:48:00,42.2,40.6,30.12,South,189,7.0,10.0,94,0.00,,---,0.16,VWS V14.01,2013-01-24 05:48:00,
2013-01-23 21:53:00,42.1,40.5,30.13,SSW,206,4.0,8.0,94,0.00,,---,0.16,VWS V14.01,2013-01-24 05:53:00,
2013-01-23 21:58:00,42.1,40.5,30.13,South,169,7.0,10.0,94,0.00,,---,0.16,VWS V14.01,2013-01-24 05:58:00,
2013-01-23 22:03:00,42.2,40.6,30.13,SW,214,7.0,13.0,94,0.00,,---,0.16,VWS V14.01,2013-01-24 06:03:00,
2013-01-23 22:08:00,42.3,40.4,30.13,SSW,209,12.0,12.0,93,0.00,,---,0.16,VWS V14.01,2013-01-24 06:08:00,
2013-01-23 22:13:00,42.6,40.4,30.13,SSW,201,3.0,6.0,92,0.00,,---,0.16,VWS V14.01,2013-01-24 06:13:00,
2013-01-23 22:18:00,42.6,40.4,30.14,SSE,163,4.0,5.0,92,0.00,,---,0.16,VWS V14.01,2013-01-24 06:18:00,
2013-01-23 22:23:00,42.6,40.4,30.14,SSW,212,4.0,6.0,92,0.00,,---,0.16,VWS V14.01,2013-01-24 06:23:00,
2013-01-23 22:28:00,42.5,40.3,30.14,SSE,163,4.0,5.0,92,0.00,,---,0.16,VWS V14.01,2013-01-24 06:28:00,
2013-01-23 22:33:00,42.6,40.4,30.15,SSE,155,4.0,5.0,92,0.00,,---,0.16,VWS V14.01,2013-01-24 06:33:00,
2013-01-23 22:38:00,42.6,40.4,30.15,SSE,151,0.0,4.0,92,0.00,,---,0.16,VWS V14.01,2013-01-24 06:38:00,
2013-01-23 22:43:00,42.6,40.4,30.15,South,186,0.0,3.0,92,0.00,,---,0.16,VWS V14.01,2013-01-24 06:43:00,
2013-01-23 22:49:00,42.6,40.4,30.16,WSW,238,5.0,6.0,92,0.00,,---,0.16,VWS V14.01,2013-01-24 06:49:00,
2013-01-23 22:54:00,42.6,40.4,30.16,SSW,210,7.0,7.0,92,0.00,,---,0.16,VWS V14.01,2013-01-24 06:54:00,
2013-01-23 22:59:00,42.7,40.5,30.16,SW,229,5.0,6.0,92,0.00,,---,0.16,VWS V14.01,2013-01-24 06:59:00,
2013-01-23 23:04:00,42.7,40.5,30.16,SSW,213,5.0,14.0,92,0.00,,---,0.16,VWS V14.01,2013-01-24 07:04:00,
2013-01-23 23:09:00,42.7,40.5,30.16,West,273,3.0,6.0,92,0.00,,---,0.16,VWS V14.01,2013-01-24 07:09:00,
2013-01-23 23:14:00,42.7,40.5,30.17,SSW,209,2.0,6.0,92,0.00,,---,0.16,VWS V14.01,2013-01-24 07:14:00,
2013-01-23 23:20:00,42.7,40.5,30.17,SW,215,5.0,8.0,92,0.00,,---,0.16,VWS V14.01,2013-01-24 07:20:00,
2013-01-23 23:25:00,42.7,40.5,30.17,WSW,241,4.0,10.0,92,0.00,,---,0.16,VWS V14.01,2013-01-24 07:25:00,
2013-01-23 23:30:00,42.7,40.5,30.17,South,190,8.0,10.0,92,0.00,,---,0.16,VWS V14.01,2013-01-24 07:30:00,
2013-01-23 23:35:00,42.7,40.5,30.17,South,180,9.0,9.0,92,0.00,,---,0.16,VWS V14.01,2013-01-24 07:35:00,
2013-01-23 23:40:00,42.6,40.4,30.18,SSW,213,5.0,9.0,92,0.00,,---,0.16,VWS V14.01,2013-01-24 07:40:00,
2013-01-23 23:45:00,42.6,40.4,30.18,SSW,202,3.0,6.0,92,0.00,,---,0.16,VWS V14.01,2013-01-24 07:45:00,
2013-01-23 23:50:00,42.5,40.3,30.18,South,173,7.0,8.0,92,0.00,,---,0.16,VWS V14.01,2013-01-24 07:50:00,
2013-01-23 23:55:00,42.6,40.4,30.18,South,184,4.0,6.0,92,0.00,,---,0.16,VWS V14.01,2013-01-24 07:55:00,